Time;durP1;ratioP1;P1;durP2;ratioP2;P2;SDS_P1;SDS_P2;PMS_P1;PMS_P2;Temp;Humidity;BMP_temperature;BMP_pressure;BME280_temperature;BME280_humidity;BME280_pressure;Samples;Min_cycle;Max_cycle;Signal;HPM_P1;HPM_P2
2021/03/30 00:02:26;;;;;;;;;;;;;;;13.72;37.53;102130.02;1784939;80;21590;-81
2021/03/30 00:04:54;;;;;;;10.32;6.22;;;;;;;13.70;37.54;102139.56;1782547;80;20222;-80
2021/03/30 00:07:21;;;;;;;16.85;7.97;;;;;;;13.66;37.51;102138.13;1782122;80;21084;-80
2021/03/30 00:09:49;;;;;;;12.58;7.50;;;;;;;13.60;37.43;102138.69;1754273;80;21125;-80
2021/03/30 00:12:16;;;;;;;14.10;7.30;;;;;;;13.56;37.63;102138.59;1753982;80;21164;-79
2021/03/30 00:14:45;;;;;;;12.03;6.22;;;;;;;13.57;37.73;102140.30;1782279;80;21644;-79
2021/03/30 00:17:13;;;;;;;12.43;6.35;;;;;;;13.59;37.68;102143.72;1782133;80;21089;-80
2021/03/30 00:19:41;;;;;;;10.38;6.20;;;;;;;13.61;37.67;102143.08;1782235;80;21111;-81
2021/03/30 00:22:08;;;;;;;;;;;;;;;13.61;37.67;102143.08;1784842;80;21156;-80
2021/03/30 00:24:35;;;;;;;12.28;6.40;;;;;;;13.60;37.57;102138.69;1782140;80;20306;-80
2021/03/30 00:27:02;;;;;;;;;;;;;;;13.60;37.50;102141.38;1784867;80;21061;-79
2021/03/30 00:29:29;;;;;;;9.18;5.67;;;;;;;13.61;37.30;102143.08;1782184;80;20250;-79
2021/03/30 00:31:57;;;;;;;11.18;6.60;;;;;;;13.61;37.38;102144.42;1782175;80;21124;-79
2021/03/30 00:34:24;;;;;;;8.68;6.65;;;;;;;13.62;37.46;102145.27;1754367;80;21418;-79
2021/03/30 00:36:52;;;;;;;12.50;6.70;;;;;;;13.61;37.45;102144.42;1782155;80;21523;-79
2021/03/30 00:39:19;;;;;;;10.08;6.80;;;;;;;13.61;37.52;102150.30;1729414;80;21473;-79
2021/03/30 00:41:47;;;;;;;12.93;6.62;;;;;;;13.60;37.48;102147.27;1782172;80;21120;-81
2021/03/30 00:44:16;;;;;;;11.93;6.58;;;;;;;13.60;37.50;102141.87;1782288;80;21591;-79
2021/03/30 00:46:44;;;;;;;12.85;7.30;;;;;;;13.61;37.60;102151.65;1754037;80;21176;-80
2021/03/30 00:49:13;;;;;;;13.32;7.25;;;;;;;13.58;37.69;102149.22;1756054;80;21112;-82
2021/03/30 00:51:44;;;;;;;10.53;7.00;;;;;;;13.57;37.89;102152.41;1784069;80;21584;-81
2021/03/30 00:54:16;;;;;;;12.98;6.95;;;;;;;13.58;37.94;102151.91;1782727;80;21547;-80
2021/03/30 00:56:48;;;;;;;12.68;7.03;;;;;;;13.59;38.00;102154.98;1779741;80;21131;-80
2021/03/30 00:59:16;;;;;;;11.00;7.45;;;;;;;13.58;37.97;102150.10;1782225;80;21131;-79
2021/03/30 01:01:45;;;;;;;;;;;;;;;13.60;37.75;102148.11;1756712;80;21164;-79
2021/03/30 01:04:13;;;;;;;13.32;7.58;;;;;;;13.60;37.76;102146.77;1782252;80;20231;-80
2021/03/30 01:06:40;;;;;;;11.53;6.95;;;;;;;13.57;37.68;102147.02;1782199;80;21124;-79
2021/03/30 01:09:29;;;;;;;;;;;;;;;13.58;37.71;102147.88;1784919;80;21571;-81
2021/03/30 01:12:40;;;;;;;12.85;7.92;;;;;;;13.57;37.77;102145.68;1782242;80;20222;-79
2021/03/30 01:15:48;;;;;;;15.50;7.45;;;;;;;13.55;37.91;102146.83;1782286;80;21136;-79
2021/03/30 01:18:31;;;;;;;12.03;7.67;;;;;;;13.53;38.06;102149.63;1781399;80;21116;-78
2021/03/30 01:21:21;;;;;;;12.85;7.75;;;;;;;13.52;38.13;102149.77;1754831;81;21141;-78
2021/03/30 01:23:56;;;;;;;15.95;8.38;;;;;;;13.51;38.10;102152.97;1753084;81;21601;-78
2021/03/30 01:26:50;;;;;;;15.00;9.03;;;;;;;13.50;38.06;102158.00;1782131;80;21510;-78
2021/03/30 01:29:28;;;;;;;14.50;8.18;;;;;;;13.49;37.95;102161.69;1782218;80;21131;-79
2021/03/30 01:31:59;;;;;;;13.93;8.78;;;;;;;13.45;37.73;102152.17;1779125;80;21182;-79
2021/03/30 01:34:27;;;;;;;18.27;8.93;;;;;;;13.42;37.64;102150.59;1782106;80;21143;-80
2021/03/30 01:36:57;;;;;;;14.85;8.88;;;;;;;13.41;37.67;102154.77;1782080;80;21190;-78
2021/03/30 01:39:25;;;;;;;15.08;9.98;;;;;;;13.39;37.68;102154.89;1725554;80;21163;-79
2021/03/30 01:41:53;;;;;;;16.87;10.03;;;;;;;13.38;37.81;102150.50;1753922;80;22185;-78
2021/03/30 01:44:21;;;;;;;;;;;;;;;13.37;37.98;102149.30;1784813;80;21071;-78
2021/03/30 01:46:49;;;;;;;14.25;8.55;;;;;;;13.35;37.95;102152.60;1781995;80;20223;-80
2021/03/30 01:49:17;;;;;;;;;;;;;;;13.33;37.95;102151.90;1784828;80;21126;-79
2021/03/30 01:51:44;;;;;;;;;;;;;;;13.31;37.87;102153.89;1784754;80;20239;-79
2021/03/30 01:54:12;;;;;;;14.00;7.90;;;;;;;13.29;37.95;102153.16;1782089;80;20219;-78
2021/03/30 01:56:41;;;;;;;16.73;7.95;;;;;;;13.26;37.92;102155.61;1782139;80;21629;-78
2021/03/30 01:59:12;;;;;;;17.42;9.20;;;;;;;13.25;37.96;102161.13;1782298;80;21582;-79
2021/03/30 02:01:40;;;;;;;12.40;8.80;;;;;;;13.24;37.92;102163.47;1754911;80;21111;-79
2021/03/30 02:04:07;;;;;;;13.75;8.83;;;;;;;13.24;38.04;102162.97;1782249;80;21129;-79
2021/03/30 02:06:36;;;;;;;15.23;8.80;;;;;;;13.24;38.15;102167.50;1782105;80;21510;-79
2021/03/30 02:09:11;;;;;;;15.15;9.20;;;;;;;13.24;38.07;102166.16;1754591;80;21092;-79
2021/03/30 02:11:47;;;;;;;16.32;9.35;;;;;;;13.22;38.09;102166.30;1782123;80;21135;-78
2021/03/30 02:14:09;;;;;;;16.05;8.50;;;;;;;13.20;38.03;102163.70;1780873;80;21544;-79
2021/03/30 02:16:51;;;;;;;14.23;8.95;;;;;;;13.19;38.13;102158.45;1729359;81;21207;-79
2021/03/30 02:19:22;;;;;;;14.40;8.53;;;;;;;13.18;38.20;102158.10;1782048;80;21163;-79
2021/03/30 02:21:57;;;;;;;13.53;8.23;;;;;;;13.18;38.21;102164.83;1782067;80;21158;-77
2021/03/30 02:24:26;;;;;;;15.13;8.40;;;;;;;13.17;38.21;102161.75;1782204;80;21080;-79
2021/03/30 02:26:54;;;;;;;14.55;8.40;;;;;;;13.15;38.26;102165.94;1754490;80;21489;-80
2021/03/30 02:29:23;;;;;;;11.88;8.00;;;;;;;13.15;38.31;102166.44;1782120;80;21067;-78
2021/03/30 02:31:53;;;;;;;12.20;7.92;;;;;;;13.14;38.45;102168.77;1781942;80;21222;-79
2021/03/30 02:34:24;;;;;;;13.22;8.68;;;;;;;13.14;38.58;102169.62;1782023;80;21084;-78
2021/03/30 02:36:53;;;;;;;23.40;9.33;;;;;;;13.13;38.66;102173.80;1782061;80;21151;-79
2021/03/30 02:39:20;;;;;;;15.93;10.65;;;;;;;13.11;38.76;102175.25;1782233;80;21068;-79
2021/03/30 02:41:49;;;;;;;20.12;11.50;;;;;;;13.10;38.84;102176.75;1782095;80;21171;-80
2021/03/30 02:44:18;;;;;;;17.40;10.18;;;;;;;13.09;38.96;102189.34;1782007;80;21138;-78
2021/03/30 02:46:47;;;;;;;17.87;9.63;;;;;;;13.08;39.15;102189.45;1782129;80;21139;-78
2021/03/30 02:49:16;;;;;;;15.35;8.55;;;;;;;13.04;39.28;102184.86;1725531;80;21505;-79
2021/03/30 02:51:46;;;;;;;15.53;8.00;;;;;;;13.01;39.22;102183.77;1781973;80;21562;-80
2021/03/30 02:54:14;;;;;;;12.88;8.45;;;;;;;12.98;39.07;102188.05;1781853;80;21115;-78
2021/03/30 02:56:43;;;;;;;14.78;8.65;;;;;;;12.96;38.89;102190.03;1754364;80;21523;-79
2021/03/30 02:59:10;;;;;;;15.90;8.58;;;;;;;12.92;38.70;102187.25;1782333;80;21487;-78
2021/03/30 03:01:38;;;;;;;17.45;9.30;;;;;;;12.88;38.50;102192.03;1749598;80;21170;-79
2021/03/30 03:04:05;;;;;;;14.33;8.65;;;;;;;12.85;38.48;102186.05;1782375;80;21167;-79
2021/03/30 03:06:32;;;;;;;16.65;9.53;;;;;;;12.82;38.43;102191.71;1753975;80;21087;-78
2021/03/30 03:08:59;;;;;;;;;;;;;;;12.80;38.39;102193.66;1784697;80;21143;-79
2021/03/30 03:11:27;;;;;;;13.98;8.20;;;;;;;12.78;38.12;102184.88;1781961;80;20266;-78
2021/03/30 03:13:56;;;;;;;12.58;7.85;;;;;;;12.74;38.12;102193.70;1781674;80;21167;-78
2021/03/30 03:16:24;;;;;;;17.17;8.45;;;;;;;12.72;38.18;102190.77;1780783;80;21198;-78
2021/03/30 03:18:52;;;;;;;16.42;8.95;;;;;;;12.70;38.27;102187.72;1784079;79;21067;-79
2021/03/30 03:21:24;;;;;;;15.05;7.75;;;;;;;12.69;38.32;102191.89;1765735;80;21205;-80
2021/03/30 03:23:51;;;;;;;19.07;9.35;;;;;;;12.68;38.41;102194.23;1754252;80;21185;-80
2021/03/30 03:26:18;;;;;;;17.95;10.05;;;;;;;12.68;38.51;102186.16;1783622;79;21157;-79
2021/03/30 03:28:46;;;;;;;15.03;8.85;;;;;;;12.67;38.69;102189.34;1768141;80;21212;-80
2021/03/30 03:31:14;;;;;;;15.85;9.38;;;;;;;12.67;38.84;102189.34;1795846;79;21809;-79
2021/03/30 03:33:42;;;;;;;17.10;9.48;;;;;;;12.66;38.95;102187.61;1753263;80;21189;-80
2021/03/30 03:36:11;;;;;;;20.45;10.15;;;;;;;12.64;39.16;102189.59;1785316;78;21629;-78
2021/03/30 03:38:41;;;;;;;15.98;9.25;;;;;;;12.63;39.27;102195.95;1754251;80;21263;-78
2021/03/30 03:41:12;;;;;;;18.07;9.48;;;;;;;12.63;39.38;102188.39;1809266;79;21220;-79
2021/03/30 03:43:40;;;;;;;20.02;9.65;;;;;;;12.63;39.22;102187.89;1783898;80;21410;-80
2021/03/30 03:46:09;;;;;;;18.52;9.63;;;;;;;12.61;39.19;102196.56;1767578;80;21775;-78
2021/03/30 03:48:37;;;;;;;20.12;11.05;;;;;;;12.61;38.94;102189.84;1780458;79;21263;-79
2021/03/30 03:51:05;;;;;;;15.03;10.43;;;;;;;12.58;38.91;102196.84;1769936;80;21212;-78
2021/03/30 03:53:35;;;;;;;22.87;10.32;;;;;;;12.56;38.90;102197.44;1780333;80;21201;-80
2021/03/30 03:56:02;;;;;;;22.20;9.90;;;;;;;12.53;38.79;102199.03;1784072;80;21149;-79
2021/03/30 03:58:40;;;;;;;18.05;9.75;;;;;;;12.53;38.74;102204.41;1756608;80;21204;-78
2021/03/30 04:01:13;;;;;;;20.88;10.90;;;;;;;12.54;38.70;102206.63;1764368;80;21531;-80
2021/03/30 04:03:50;;;;;;;19.05;9.90;;;;;;;12.55;38.65;102209.19;1785002;79;21149;-80
2021/03/30 04:06:31;;;;;;;25.52;10.53;;;;;;;12.55;38.61;102209.19;1759489;79;21640;-79
2021/03/30 04:08:59;;;;;;;22.37;10.45;;;;;;;12.54;38.74;102207.48;1773019;80;21204;-79
2021/03/30 04:11:28;;;;;;;19.80;9.60;;;;;;;12.53;38.83;102214.31;1753361;81;21201;-79
2021/03/30 04:13:57;;;;;;;18.55;9.80;;;;;;;12.50;38.76;102220.81;1752438;80;21676;-78
2021/03/30 04:16:24;;;;;;;21.15;9.65;;;;;;;12.48;38.75;102216.03;1744632;82;21233;-78
2021/03/30 04:18:53;;;;;;;18.92;9.55;;;;;;;12.49;38.86;102220.92;1752810;81;21181;-80
2021/03/30 04:21:30;;;;;;;16.10;10.40;;;;;;;12.46;38.93;102216.67;1784962;79;21205;-79
2021/03/30 04:23:58;;;;;;;18.98;11.50;;;;;;;12.47;39.06;102226.44;1779847;80;21809;-79
2021/03/30 04:26:27;;;;;;;21.93;11.22;;;;;;;12.48;39.38;102228.12;1751872;80;21254;-79
2021/03/30 04:28:55;;;;;;;23.47;11.30;;;;;;;12.48;39.66;102228.12;1751879;81;21217;-77
2021/03/30 04:31:22;;;;;;;27.50;13.25;;;;;;;12.50;39.60;102231.56;1761970;80;22222;-78
2021/03/30 04:33:50;;;;;;;27.10;12.00;;;;;;;12.51;39.58;102229.23;1727333;80;21212;-80
2021/03/30 04:36:18;;;;;;;26.90;10.70;;;;;;;12.52;39.54;102233.63;1728007;80;21196;-77
2021/03/30 04:38:45;;;;;;;;;;;;;;;12.52;39.54;102229.59;1754119;81;21197;-78
2021/03/30 04:41:12;;;;;;;21.52;13.32;;;;;;;12.51;39.59;102238.64;1765599;80;20595;-77
2021/03/30 04:43:41;;;;;;;21.73;11.48;;;;;;;12.48;39.78;102240.72;1755247;80;21205;-78
2021/03/30 04:46:09;;;;;;;20.32;12.25;;;;;;;12.43;39.94;102233.89;1765727;80;21204;-80
2021/03/30 04:48:36;;;;;;;20.08;10.88;;;;;;;12.46;40.13;102238.66;1739085;81;21177;-78
2021/03/30 04:51:06;;;;;;;20.25;11.28;;;;;;;12.46;40.18;102244.89;1779608;80;21614;-79
2021/03/30 04:53:34;;;;;;;35.75;18.15;;;;;;;12.25;40.40;102247.49;1759262;80;21118;-79
2021/03/30 04:56:03;;;;;;;32.48;16.23;;;;;;;12.35;39.79;102247.59;1778947;80;21133;-78
2021/03/30 04:58:30;;;;;;;23.65;12.33;;;;;;;12.42;39.32;102250.15;1780435;79;21161;-77
2021/03/30 05:00:59;;;;;;;23.47;12.50;;;;;;;12.42;38.83;102248.81;1768228;79;21606;-78
2021/03/30 05:03:26;;;;;;;19.40;11.60;;;;;;;12.35;38.62;102249.81;1765935;80;21098;-80
2021/03/30 05:05:54;;;;;;;18.00;11.33;;;;;;;12.14;38.97;102253.75;1773338;79;21184;-79
2021/03/30 05:08:22;;;;;;;21.87;11.03;;;;;;;12.00;39.32;102253.17;1745488;80;21194;-81
2021/03/30 05:10:51;;;;;;;23.95;11.30;;;;;;;12.18;38.99;102253.87;1732749;80;21666;-79
2021/03/30 05:13:18;;;;;;;20.10;11.50;;;;;;;12.20;38.92;102257.77;1762753;80;21489;-77
2021/03/30 05:15:46;;;;;;;15.95;9.35;;;;;;;12.23;39.04;102260.70;1786810;78;21228;-77
2021/03/30 05:18:19;;;;;;;19.98;11.45;;;;;;;12.27;39.17;102252.77;1756708;80;21319;-79
2021/03/30 05:20:50;;;;;;;21.15;10.75;;;;;;;12.31;39.19;102251.50;1766323;79;22199;-79
2021/03/30 05:23:19;;;;;;;19.55;10.95;;;;;;;12.33;39.06;102254.94;1761015;79;21201;-77
2021/03/30 05:25:52;;;;;;;22.30;12.10;;;;;;;12.31;38.76;102255.08;1763149;79;21204;-78
2021/03/30 05:28:19;;;;;;;26.07;13.65;;;;;;;12.30;38.27;102264.58;1755045;79;21145;-79
2021/03/30 05:30:49;;;;;;;24.82;12.33;;;;;;;12.31;38.28;102260.91;1771080;79;21155;-79
2021/03/30 05:33:16;;;;;;;17.50;10.98;;;;;;;12.38;38.15;102262.12;1759704;79;21229;-76
2021/03/30 05:35:45;;;;;;;23.83;11.43;;;;;;;12.43;38.12;102263.95;1693839;83;21153;-78
2021/03/30 05:38:15;;;;;;;26.25;12.43;;;;;;;12.45;38.27;102266.03;1653580;84;21177;-81
2021/03/30 05:40:42;;;;;;;27.40;13.35;;;;;;;12.48;38.34;102266.25;1671138;83;21110;-77
2021/03/30 05:43:11;;;;;;;20.37;11.85;;;;;;;12.51;38.28;102272.23;1708508;82;21141;-79
2021/03/30 05:45:38;;;;;;;17.55;10.75;;;;;;;12.51;38.12;102277.61;1697707;81;21116;-77
2021/03/30 05:48:10;;;;;;;21.45;11.28;;;;;;;12.55;37.96;102272.35;1705919;82;21666;-78
2021/03/30 05:50:37;;;;;;;23.25;11.15;;;;;;;12.60;37.92;102266.09;1686128;83;21146;-78
2021/03/30 05:53:12;;;;;;;26.52;11.80;;;;;;;12.69;37.92;102270.71;1691935;82;21184;-80
2021/03/30 05:55:46;;;;;;;16.90;9.85;;;;;;;12.78;37.96;102270.94;1712328;82;21120;-79
2021/03/30 05:58:13;;;;;;;22.37;10.80;;;;;;;12.82;37.55;102278.62;1690863;83;21425;-80
2021/03/30 06:00:44;;;;;;;25.57;11.12;;;;;;;12.42;38.25;102274.34;1687233;82;21253;-80
2021/03/30 06:03:35;;;;;;;18.23;10.48;;;;;;;12.73;37.90;102268.62;1704328;82;21252;-81
2021/03/30 06:06:09;;;;;;;22.07;11.65;;;;;;;12.91;37.57;102265.73;1702708;82;21449;-80
2021/03/30 06:08:38;;;;;;;17.27;10.55;;;;;;;13.00;37.51;102265.45;1702481;83;21164;-79
2021/03/30 06:11:08;;;;;;;22.55;11.12;;;;;;;13.05;37.51;102260.53;1670462;84;21244;-81
2021/03/30 06:13:56;;;;;;;20.10;11.35;;;;;;;13.15;37.62;102268.18;1713367;82;21216;-79
2021/03/30 06:16:38;;;;;;;20.32;11.55;;;;;;;13.29;37.44;102271.06;1726228;81;21204;-80
2021/03/30 06:19:19;;;;;;;19.23;11.83;;;;;;;13.43;37.20;102268.53;1685206;82;21197;-81
2021/03/30 06:22:04;;;;;;;18.17;10.65;;;;;;;13.56;36.90;102276.41;1709454;82;21168;-80
2021/03/30 06:24:53;;;;;;;15.95;10.78;;;;;;;13.65;36.69;102276.45;1693233;82;21121;-80
2021/03/30 06:27:24;;;;;;;20.48;11.15;;;;;;;13.77;36.25;102281.77;1709376;82;21109;-79
2021/03/30 06:29:54;;;;;;;19.42;10.78;;;;;;;13.82;36.21;102283.56;1707080;83;21132;-81
2021/03/30 06:32:23;;;;;;;19.42;12.13;;;;;;;13.82;36.29;102287.60;1710079;82;21129;-80
2021/03/30 06:35:10;;;;;;;28.45;14.47;;;;;;;13.86;36.17;102289.05;1712018;83;21366;-78
2021/03/30 06:37:39;;;;;;;18.73;10.32;;;;;;;13.92;36.08;102291.19;1705395;82;21730;-77
2021/03/30 06:40:21;;;;;;;21.20;10.88;;;;;;;13.98;36.17;102295.17;1706757;82;21746;-78
2021/03/30 06:42:52;;;;;;;15.10;10.10;;;;;;;13.97;36.17;102295.67;1708043;82;21668;-78
2021/03/30 06:45:21;;;;;;;22.40;11.35;;;;;;;14.00;36.14;102301.30;1688187;81;21197;-78
2021/03/30 06:47:53;;;;;;;21.60;10.53;;;;;;;13.88;36.25;102303.21;1715674;81;21240;-78
2021/03/30 06:50:31;;;;;;;16.30;10.70;;;;;;;13.72;36.37;102302.38;1691913;81;21496;-79
2021/03/30 06:53:15;;;;;;;17.57;10.28;;;;;;;13.55;36.59;102297.59;1717823;81;21172;-79
2021/03/30 06:55:53;;;;;;;17.87;11.25;;;;;;;13.32;36.78;102300.42;1691584;83;21188;-80
2021/03/30 06:58:24;;;;;;;17.80;10.93;;;;;;;13.11;37.28;102296.82;1688119;81;21166;-78
2021/03/30 07:00:51;;;;;;;16.20;10.90;;;;;;;13.05;37.42;102310.30;1718018;81;21104;-79
2021/03/30 07:03:20;;;;;;;23.45;11.85;;;;;;;12.55;38.25;102305.95;1706372;82;21703;-79
2021/03/30 07:05:52;;;;;;;24.10;11.22;;;;;;;12.76;38.08;102311.87;1714376;81;21153;-77
2021/03/30 07:08:21;;;;;;;18.35;11.20;;;;;;;12.74;38.29;102309.31;1721676;81;21147;-77
2021/03/30 07:10:54;;;;;;;19.07;10.85;;;;;;;12.86;38.07;102314.19;1720539;81;21171;-78
2021/03/30 07:13:22;;;;;;;16.80;9.93;;;;;;;12.95;37.76;102316.10;1696454;82;21124;-78
2021/03/30 07:16:02;;;;;;;17.00;10.68;;;;;;;13.09;37.73;102321.17;1724062;81;21103;-78
2021/03/30 07:18:46;;;;;;;15.98;11.00;;;;;;;13.32;37.84;102318.41;1726887;81;21723;-80
2021/03/30 07:21:51;;;;;;;18.15;11.15;;;;;;;13.60;37.60;102321.78;1722749;81;22487;-77
2021/03/30 08:03:55;;;;;;;18.20;10.55;;;;;;;16.53;33.38;102345.55;1652107;84;21210;-79
2021/03/30 08:06:31;;;;;;;17.07;10.32;;;;;;;16.76;33.40;102346.03;1649548;84;21700;-78
2021/03/30 08:09:13;;;;;;;17.77;11.10;;;;;;;16.91;33.30;102348.55;1642527;85;21761;-79
2021/03/30 08:11:53;;;;;;;15.00;9.18;;;;;;;17.09;32.41;102345.84;1628921;85;21177;-79
2021/03/30 08:14:38;;;;;;;18.87;9.90;;;;;;;17.24;32.07;102351.05;1612587;85;21150;-79
2021/03/30 08:17:14;;;;;;;14.95;9.20;;;;;;;17.44;31.64;102349.05;1608534;85;21134;-78
2021/03/30 08:20:06;;;;;;;15.53;10.53;;;;;;;17.62;30.85;102349.48;1600388;84;21193;-78
2021/03/30 08:23:39;;;;;;;16.62;9.35;;;;;;;17.87;30.59;102348.69;1857520;75;25553;-78
2021/03/30 08:26:34;;;;;;;14.58;9.43;;;;;;;18.06;30.17;102347.60;1791735;78;22605;-77
2021/03/30 08:29:37;;;;;;;13.05;8.20;;;;;;;18.19;29.64;102357.50;1764934;79;21758;-78
2021/03/30 08:32:08;;;;;;;14.15;6.92;;;;;;;18.25;28.87;102355.48;1768821;79;21216;-78
2021/03/30 08:34:40;;;;;;;13.13;7.35;;;;;;;18.31;28.28;102353.17;1739918;79;21833;-80
2021/03/30 08:37:12;;;;;;;9.15;5.37;;;;;;;18.39;28.09;102344.53;1771772;79;21175;-78
2021/03/30 08:39:44;;;;;;;6.75;4.85;;;;;;;18.48;27.60;102345.41;1770194;79;21140;-79
2021/03/30 08:42:18;;;;;;;9.38;5.83;;;;;;;18.55;26.84;102346.98;1767227;79;21579;-77
2021/03/30 08:45:03;;;;;;;9.88;5.60;;;;;;;18.60;26.66;102349.53;1764630;79;21557;-78
2021/03/30 08:47:44;;;;;;;10.48;6.83;;;;;;;18.63;26.35;102349.21;1749176;79;21188;-82
2021/03/30 08:50:27;;;;;;;10.10;6.83;;;;;;;18.64;26.08;102348.19;1740487;79;21132;-79
2021/03/30 08:52:56;;;;;;;10.95;6.67;;;;;;;18.62;25.92;102352.95;1770809;79;21125;-83
2021/03/30 08:55:30;;;;;;;11.80;6.62;;;;;;;18.55;25.77;102354.61;1771454;79;21125;-82
2021/03/30 08:58:06;;;;;;;10.50;6.33;;;;;;;18.47;26.04;102339.14;1771451;79;21708;-80
2021/03/30 09:00:34;;;;;;;12.40;7.47;;;;;;;18.47;26.39;102345.08;1740211;79;21177;-79
2021/03/30 09:03:05;;;;;;;10.88;5.92;;;;;;;18.47;26.19;102347.79;1769644;79;21157;-79
2021/03/30 09:05:38;;;;;;;8.90;5.72;;;;;;;18.40;25.85;102343.54;1766434;79;21995;-77
2021/03/30 09:08:12;;;;;;;8.98;6.20;;;;;;;18.32;26.00;102350.80;1767640;79;21109;-78
2021/03/30 09:10:41;;;;;;;8.85;6.75;;;;;;;18.21;26.21;102341.94;1766984;79;21612;-78
2021/03/30 09:13:11;;;;;;;8.73;7.15;;;;;;;18.06;26.70;102343.53;1770228;79;22073;-77
2021/03/30 09:15:41;;;;;;;12.40;7.30;;;;;;;18.00;27.31;102336.91;1772687;79;21153;-76
2021/03/30 09:18:09;;;;;;;11.50;7.55;;;;;;;17.90;27.35;102341.59;1770222;79;21129;-78
2021/03/30 09:20:37;;;;;;;9.85;6.90;;;;;;;17.75;27.46;102338.60;1774016;79;21675;-76
2021/03/30 09:23:14;;;;;;;8.60;5.72;;;;;;;17.45;27.53;102343.12;1747825;80;21114;-79
2021/03/30 09:25:44;;;;;;;9.15;6.53;;;;;;;17.53;27.36;102341.80;1768093;79;21157;-77
2021/03/30 09:28:20;;;;;;;8.25;5.45;;;;;;;17.48;27.33;102333.30;1768624;79;21180;-76
2021/03/30 09:30:48;;;;;;;15.75;6.67;;;;;;;17.44;27.00;102338.68;1771726;79;21600;-77
2021/03/30 09:33:15;;;;;;;10.25;5.85;;;;;;;17.36;26.69;102331.87;1748889;79;21644;-76
2021/03/30 09:35:43;;;;;;;7.78;5.65;;;;;;;17.26;26.64;102329.25;1745779;79;21242;-77
2021/03/30 09:38:10;;;;;;;10.78;5.20;;;;;;;17.16;26.75;102323.89;1732809;80;21168;-77
2021/03/30 09:40:41;;;;;;;7.97;5.45;;;;;;;17.06;26.84;102329.06;1767435;79;21133;-78
2021/03/30 09:43:14;;;;;;;10.40;5.47;;;;;;;16.97;27.02;102330.83;1770670;79;21165;-79
2021/03/30 09:45:43;;;;;;;11.50;5.70;;;;;;;16.85;27.30;102323.94;1772242;79;21154;-78
2021/03/30 09:48:17;;;;;;;9.65;5.65;;;;;;;16.72;27.50;102329.24;1749941;80;21115;-78
2021/03/30 09:50:48;;;;;;;11.08;5.85;;;;;;;16.50;27.94;102332.34;1773865;79;21148;-77
2021/03/30 09:53:20;;;;;;;9.50;6.20;;;;;;;16.47;28.02;102325.88;1749593;79;21150;-77
2021/03/30 09:55:48;;;;;;;10.30;5.70;;;;;;;16.47;28.27;102325.88;1768163;79;21181;-78
2021/03/30 09:58:17;;;;;;;12.10;5.35;;;;;;;16.43;28.41;102325.81;1768175;79;21118;-79
2021/03/30 10:00:56;;;;;;;12.20;6.47;;;;;;;16.41;28.78;102323.28;1752337;80;21190;-79
2021/03/30 10:03:25;;;;;;;9.98;5.67;;;;;;;16.38;28.44;102322.21;1770330;79;21153;-78
2021/03/30 10:05:52;;;;;;;7.95;5.40;;;;;;;16.27;27.95;102319.73;1767659;79;21121;-78
2021/03/30 10:08:23;;;;;;;;;;;;;;;16.19;27.90;102319.62;1789555;79;21170;-78
2021/03/30 10:11:00;;;;;;;8.45;5.97;;;;;;;16.11;28.10;102320.36;1768793;79;20290;-80
2021/03/30 10:13:40;;;;;;;11.78;7.25;;;;;;;16.02;28.28;102319.89;1739487;80;21181;-77
2021/03/30 10:16:11;;;;;;;13.85;6.60;;;;;;;15.97;28.17;102320.84;1771624;79;21133;-78
2021/03/30 10:18:42;;;;;;;12.10;5.75;;;;;;;15.86;28.32;102317.84;1768806;79;21165;-76
2021/03/30 10:21:18;;;;;;;12.47;6.25;;;;;;;15.77;28.22;102315.17;1754553;80;21211;-78
2021/03/30 10:23:52;;;;;;;12.25;6.33;;;;;;;15.66;28.36;102318.37;1788686;78;21130;-77
2021/03/30 10:26:26;;;;;;;10.05;5.80;;;;;;;15.36;28.80;102317.21;1768663;79;21152;-78
2021/03/30 10:29:05;;;;;;;9.75;6.00;;;;;;;15.20;28.99;102317.78;1770124;79;21133;-78
2021/03/30 10:31:41;;;;;;;13.72;6.37;;;;;;;15.14;29.17;102319.21;1773540;79;21374;-78
2021/03/30 10:34:38;;;;;;;13.22;6.37;;;;;;;15.15;29.37;102312.81;1777680;79;21113;-79
2021/03/30 10:37:14;;;;;;;12.82;6.40;;;;;;;15.17;29.63;102309.48;1678942;82;21308;-79
2021/03/30 10:39:55;;;;;;;13.50;6.65;;;;;;;15.38;29.50;102304.41;1676155;82;21287;-79
2021/03/30 10:42:29;;;;;;;8.18;5.65;;;;;;;15.53;29.20;102296.19;1744011;79;21141;-77
2021/03/30 10:44:57;;;;;;;9.50;6.03;;;;;;;15.60;28.75;102301.37;1760625;80;21157;-78
2021/03/30 10:47:35;;;;;;;9.60;5.10;;;;;;;15.60;28.52;102285.67;1731533;80;21121;-79
2021/03/30 10:50:13;;;;;;;10.58;5.62;;;;;;;15.66;28.59;102288.66;1766913;80;21955;-80
2021/03/30 10:52:47;;;;;;;12.37;5.25;;;;;;;15.73;28.45;102283.03;1790224;78;21699;-78
2021/03/30 10:55:23;;;;;;;6.97;4.95;;;;;;;15.76;28.16;102284.59;1772297;79;21125;-82
2021/03/30 10:57:52;;;;;;;11.70;5.97;;;;;;;15.77;28.01;102284.95;1755409;80;21134;-78
2021/03/30 11:00:20;;;;;;;11.93;5.65;;;;;;;15.75;28.02;102276.63;1759429;80;21140;-78
2021/03/30 11:02:48;;;;;;;8.73;5.37;;;;;;;15.75;28.02;102271.22;1749398;80;21106;-78
2021/03/30 11:05:19;;;;;;;17.10;5.92;;;;;;;15.79;28.13;102272.62;1738513;80;21802;-80
2021/03/30 11:07:48;;;;;;;10.35;5.60;;;;;;;15.86;28.05;102271.05;1770124;79;21185;-78
2021/03/30 11:10:16;;;;;;;8.13;5.60;;;;;;;15.92;28.08;102273.14;1764303;79;21264;-79
2021/03/30 11:12:44;;;;;;;13.08;6.03;;;;;;;15.96;28.12;102270.50;1744887;80;21121;-79
2021/03/30 11:15:13;;;;;;;9.18;5.80;;;;;;;16.01;28.03;102267.34;1775656;79;21604;-80
2021/03/30 11:17:41;;;;;;;18.17;6.87;;;;;;;16.06;27.77;102261.83;1789819;79;21141;-79
2021/03/30 11:20:12;;;;;;;12.40;5.12;;;;;;;16.08;27.79;102258.50;1791778;79;21176;-78
2021/03/30 11:22:44;;;;;;;11.60;5.87;;;;;;;16.12;27.99;102263.92;1769981;80;21150;-79
2021/03/30 11:25:12;;;;;;;10.68;6.97;;;;;;;16.14;27.64;102259.23;1774661;80;21173;-79
2021/03/30 11:27:47;;;;;;;12.40;6.28;;;;;;;16.11;27.52;102256.83;1768447;79;21094;-78
2021/03/30 11:30:20;;;;;;;9.70;5.25;;;;;;;16.08;27.38;102260.32;1771561;79;21112;-79
2021/03/30 11:32:57;;;;;;;8.65;5.20;;;;;;;15.97;27.46;102252.77;1752351;80;21145;-78
2021/03/30 11:35:23;;;;;;;6.53;4.53;;;;;;;16.00;27.40;102254.34;1775106;79;21145;-78
2021/03/30 11:37:56;;;;;;;8.33;5.53;;;;;;;16.01;27.58;102251.13;1764615;80;21224;-79
2021/03/30 11:40:50;;;;;;;9.28;5.17;;;;;;;16.06;27.55;102246.13;1865256;76;22191;-80
2021/03/30 11:43:20;;;;;;;11.70;6.20;;;;;;;15.98;27.48;102244.16;1834997;76;21220;-78
2021/03/30 11:45:51;;;;;;;12.23;5.25;;;;;;;15.97;27.57;102243.81;1835882;76;21216;-79
2021/03/30 11:48:20;;;;;;;6.47;4.78;;;;;;;15.94;27.57;102244.10;1839031;76;20979;-78
2021/03/30 11:50:49;;;;;;;9.88;5.37;;;;;;;15.90;27.47;102238.17;1792817;78;21671;-77
2021/03/30 11:53:16;;;;;;;9.40;5.40;;;;;;;15.89;27.80;102234.25;1792260;78;21967;-79
2021/03/30 11:55:44;;;;;;;7.97;5.28;;;;;;;15.90;27.54;102237.33;1769897;79;21109;-78
2021/03/30 11:58:13;;;;;;;8.35;4.85;;;;;;;15.88;27.63;102225.80;1771516;78;21967;-78
2021/03/30 12:00:41;;;;;;;8.90;4.78;;;;;;;15.87;27.46;102221.41;1741283;78;21145;-78
2021/03/30 12:03:10;;;;;;;10.68;4.80;;;;;;;15.88;26.98;102222.59;1771431;78;21258;-79
2021/03/30 12:05:37;;;;;;;5.67;4.28;;;;;;;15.88;26.60;102219.04;1768602;78;21665;-78
2021/03/30 12:08:05;;;;;;;;;;;;;;;15.90;26.76;102222.46;1753503;79;21212;-80
2021/03/30 12:10:32;;;;;;;5.85;3.65;;;;;;;15.92;26.15;102208.28;1762543;80;20245;-79
2021/03/30 12:13:00;;;;;;;6.22;4.35;;;;;;;15.90;26.09;102206.25;1793760;78;21134;-80
2021/03/30 12:15:28;;;;;;;9.90;4.58;;;;;;;15.90;26.23;102210.30;1763722;79;20951;-80
2021/03/30 12:17:55;;;;;;;8.15;3.92;;;;;;;15.87;26.15;102206.54;1762616;80;21189;-80
2021/03/30 12:20:23;;;;;;;6.87;3.98;;;;;;;15.83;25.77;102198.38;1755320;80;21145;-79
2021/03/30 12:22:50;;;;;;;5.67;4.03;;;;;;;15.79;25.83;102196.97;1766835;79;21149;-79